sensor_id;sensor_type;location;lat;lon;timestamp;temperature;humidity
23873;DHT22;42884;50.718;4.630;2024-02-26T00:02:02;8.10;99.90
23873;DHT22;42884;50.718;4.630;2024-02-26T00:04:28;8.10;99.90
23873;DHT22;42884;50.718;4.630;2024-02-26T00:06:54;8.20;99.90
23873;DHT22;42884;50.718;4.630;2024-02-26T00:09:21;8.00;99.90
23873;DHT22;42884;50.718;4.630;2024-02-26T00:11:47;7.90;99.90
23873;DHT22;42884;50.718;4.630;2024-02-26T00:14:13;7.90;99.90
23873;DHT22;42884;50.718;4.630;2024-02-26T00:16:42;7.80;99.90
23873;DHT22;42884;50.718;4.630;2024-02-26T00:19:08;7.90;99.90
23873;DHT22;42884;50.718;4.630;2024-02-26T00:21:34;7.90;99.90
23873;DHT22;42884;50.718;4.630;2024-02-26T00:23:59;8.00;99.90
23873;DHT22;42884;50.718;4.630;2024-02-26T00:26:25;8.00;99.90
23873;DHT22;42884;50.718;4.630;2024-02-26T00:28:51;8.10;99.90
23873;DHT22;42884;50.718;4.630;2024-02-26T00:31:16;8.00;99.90
23873;DHT22;42884;50.718;4.630;2024-02-26T00:33:42;8.00;99.90
23873;DHT22;42884;50.718;4.630;2024-02-26T00:36:08;8.00;99.90
23873;DHT22;42884;50.718;4.630;2024-02-26T00:38:34;7.80;99.90
23873;DHT22;42884;50.718;4.630;2024-02-26T00:41:00;7.80;99.90
23873;DHT22;42884;50.718;4.630;2024-02-26T00:43:26;7.80;99.90
23873;DHT22;42884;50.718;4.630;2024-02-26T00:45:52;7.70;99.90
23873;DHT22;42884;50.718;4.630;2024-02-26T00:48:18;7.60;99.90
23873;DHT22;42884;50.718;4.630;2024-02-26T00:50:43;7.70;99.90
23873;DHT22;42884;50.718;4.630;2024-02-26T00:53:09;7.70;99.90
23873;DHT22;42884;50.718;4.630;2024-02-26T00:55:35;7.80;99.90
23873;DHT22;42884;50.718;4.630;2024-02-26T00:58:00;7.70;99.90
23873;DHT22;42884;50.718;4.630;2024-02-26T01:00:26;7.50;99.90
23873;DHT22;42884;50.718;4.630;2024-02-26T01:02:52;7.50;99.90
23873;DHT22;42884;50.718;4.630;2024-02-26T01:05:17;7.60;99.90
23873;DHT22;42884;50.718;4.630;2024-02-26T01:07:43;7.50;99.90
23873;DHT22;42884;50.718;4.630;2024-02-26T01:10:09;7.60;99.90
23873;DHT22;42884;50.718;4.630;2024-02-26T01:12:35;7.60;99.90
23873;DHT22;42884;50.718;4.630;2024-02-26T01:15:02;7.60;99.90
23873;DHT22;42884;50.718;4.630;2024-02-26T01:17:31;7.60;99.90
23873;DHT22;42884;50.718;4.630;2024-02-26T01:19:56;7.70;99.90
23873;DHT22;42884;50.718;4.630;2024-02-26T01:22:22;7.70;99.90
23873;DHT22;42884;50.718;4.630;2024-02-26T01:24:48;7.60;99.90
23873;DHT22;42884;50.718;4.630;2024-02-26T01:27:14;7.50;99.90
23873;DHT22;42884;50.718;4.630;2024-02-26T01:29:41;7.60;99.90
23873;DHT22;42884;50.718;4.630;2024-02-26T01:32:07;7.60;99.90
23873;DHT22;42884;50.718;4.630;2024-02-26T01:34:32;7.60;99.90
23873;DHT22;42884;50.718;4.630;2024-02-26T01:36:59;7.60;99.90
23873;DHT22;42884;50.718;4.630;2024-02-26T01:39:24;7.50;99.90
23873;DHT22;42884;50.718;4.630;2024-02-26T01:41:50;7.70;99.90
23873;DHT22;42884;50.718;4.630;2024-02-26T01:44:16;7.70;99.90
23873;DHT22;42884;50.718;4.630;2024-02-26T01:46:42;7.60;99.90
23873;DHT22;42884;50.718;4.630;2024-02-26T01:49:11;7.60;99.90
23873;DHT22;42884;50.718;4.630;2024-02-26T01:51:39;7.60;99.90
23873;DHT22;42884;50.718;4.630;2024-02-26T01:54:06;7.50;99.90
23873;DHT22;42884;50.718;4.630;2024-02-26T01:56:34;7.60;99.90
23873;DHT22;42884;50.718;4.630;2024-02-26T01:59:01;7.50;99.90
23873;DHT22;42884;50.718;4.630;2024-02-26T02:01:29;7.40;99.90
23873;DHT22;42884;50.718;4.630;2024-02-26T02:03:59;7.40;99.90
23873;DHT22;42884;50.718;4.630;2024-02-26T02:06:26;7.50;99.90
23873;DHT22;42884;50.718;4.630;2024-02-26T02:08:54;7.50;99.90
23873;DHT22;42884;50.718;4.630;2024-02-26T02:11:20;7.50;99.90
23873;DHT22;42884;50.718;4.630;2024-02-26T02:13:46;7.50;99.90
23873;DHT22;42884;50.718;4.630;2024-02-26T02:16:12;7.50;99.90
23873;DHT22;42884;50.718;4.630;2024-02-26T02:18:38;7.60;99.90
23873;DHT22;42884;50.718;4.630;2024-02-26T02:21:04;7.40;99.90
23873;DHT22;42884;50.718;4.630;2024-02-26T02:23:30;7.40;99.90
23873;DHT22;42884;50.718;4.630;2024-02-26T02:25:57;7.40;99.90
23873;DHT22;42884;50.718;4.630;2024-02-26T02:28:24;7.30;99.90
23873;DHT22;42884;50.718;4.630;2024-02-26T02:30:50;7.30;99.90
23873;DHT22;42884;50.718;4.630;2024-02-26T02:33:16;7.30;99.90
23873;DHT22;42884;50.718;4.630;2024-02-26T02:35:42;7.30;99.90
23873;DHT22;42884;50.718;4.630;2024-02-26T02:38:08;7.30;99.90
23873;DHT22;42884;50.718;4.630;2024-02-26T02:40:34;7.40;99.90
23873;DHT22;42884;50.718;4.630;2024-02-26T02:43:00;7.50;99.90
23873;DHT22;42884;50.718;4.630;2024-02-26T02:45:27;7.50;99.90
23873;DHT22;42884;50.718;4.630;2024-02-26T02:47:53;7.50;99.90
23873;DHT22;42884;50.718;4.630;2024-02-26T02:50:19;7.40;99.90
23873;DHT22;42884;50.718;4.630;2024-02-26T02:52:44;7.40;99.90
23873;DHT22;42884;50.718;4.630;2024-02-26T02:55:10;7.30;99.90
23873;DHT22;42884;50.718;4.630;2024-02-26T02:57:36;7.40;99.90
23873;DHT22;42884;50.718;4.630;2024-02-26T03:00:08;7.30;99.90
23873;DHT22;42884;50.718;4.630;2024-02-26T03:02:34;7.20;99.90
23873;DHT22;42884;50.718;4.630;2024-02-26T03:05:02;7.20;99.90
23873;DHT22;42884;50.718;4.630;2024-02-26T03:07:28;7.30;99.90
23873;DHT22;42884;50.718;4.630;2024-02-26T03:09:53;7.20;99.90
23873;DHT22;42884;50.718;4.630;2024-02-26T03:12:19;7.20;99.90
23873;DHT22;42884;50.718;4.630;2024-02-26T03:14:45;7.30;99.90
23873;DHT22;42884;50.718;4.630;2024-02-26T03:17:11;7.30;99.90
23873;DHT22;42884;50.718;4.630;2024-02-26T03:19:37;7.20;99.90
23873;DHT22;42884;50.718;4.630;2024-02-26T03:22:02;7.20;99.90
23873;DHT22;42884;50.718;4.630;2024-02-26T03:24:28;7.20;99.90
23873;DHT22;42884;50.718;4.630;2024-02-26T03:26:54;7.30;99.90
23873;DHT22;42884;50.718;4.630;2024-02-26T03:29:19;7.20;99.90
23873;DHT22;42884;50.718;4.630;2024-02-26T03:31:45;7.20;99.90
23873;DHT22;42884;50.718;4.630;2024-02-26T03:34:11;7.20;99.90
23873;DHT22;42884;50.718;4.630;2024-02-26T03:36:38;7.30;99.90
23873;DHT22;42884;50.718;4.630;2024-02-26T03:39:04;7.20;99.90
23873;DHT22;42884;50.718;4.630;2024-02-26T03:41:36;7.30;99.90
23873;DHT22;42884;50.718;4.630;2024-02-26T03:44:02;7.20;99.90
23873;DHT22;42884;50.718;4.630;2024-02-26T03:46:28;7.10;99.90
23873;DHT22;42884;50.718;4.630;2024-02-26T03:48:54;7.20;99.90
23873;DHT22;42884;50.718;4.630;2024-02-26T03:51:20;7.10;99.90
23873;DHT22;42884;50.718;4.630;2024-02-26T03:53:45;7.20;99.90
23873;DHT22;42884;50.718;4.630;2024-02-26T03:56:11;7.20;99.90
23873;DHT22;42884;50.718;4.630;2024-02-26T03:58:38;7.20;99.90
23873;DHT22;42884;50.718;4.630;2024-02-26T04:01:06;7.20;99.90
23873;DHT22;42884;50.718;4.630;2024-02-26T04:03:32;7.20;99.90
23873;DHT22;42884;50.718;4.630;2024-02-26T04:05:58;7.20;99.90
23873;DHT22;42884;50.718;4.630;2024-02-26T04:08:23;7.30;99.90
23873;DHT22;42884;50.718;4.630;2024-02-26T04:10:49;7.20;99.90
23873;DHT22;42884;50.718;4.630;2024-02-26T04:13:15;7.10;99.90
23873;DHT22;42884;50.718;4.630;2024-02-26T04:15:41;7.10;99.90
23873;DHT22;42884;50.718;4.630;2024-02-26T04:18:06;7.20;99.90
23873;DHT22;42884;50.718;4.630;2024-02-26T04:20:32;7.10;99.90
23873;DHT22;42884;50.718;4.630;2024-02-26T04:22:58;7.10;99.90
23873;DHT22;42884;50.718;4.630;2024-02-26T04:25:23;7.20;99.90
23873;DHT22;42884;50.718;4.630;2024-02-26T04:27:49;7.20;99.90
23873;DHT22;42884;50.718;4.630;2024-02-26T04:30:15;7.10;99.90
23873;DHT22;42884;50.718;4.630;2024-02-26T04:32:42;7.10;99.90
23873;DHT22;42884;50.718;4.630;2024-02-26T04:35:08;7.10;99.90
23873;DHT22;42884;50.718;4.630;2024-02-26T04:37:34;7.10;99.90
23873;DHT22;42884;50.718;4.630;2024-02-26T04:40:00;7.10;99.90
23873;DHT22;42884;50.718;4.630;2024-02-26T04:42:26;7.20;99.90
23873;DHT22;42884;50.718;4.630;2024-02-26T04:44:53;7.20;99.90
23873;DHT22;42884;50.718;4.630;2024-02-26T04:47:19;7.30;99.90
23873;DHT22;42884;50.718;4.630;2024-02-26T04:49:48;7.30;99.90
23873;DHT22;42884;50.718;4.630;2024-02-26T04:52:14;7.40;99.90
23873;DHT22;42884;50.718;4.630;2024-02-26T04:54:40;7.40;99.90
23873;DHT22;42884;50.718;4.630;2024-02-26T04:57:05;7.40;99.90
23873;DHT22;42884;50.718;4.630;2024-02-26T04:59:31;7.50;99.90
23873;DHT22;42884;50.718;4.630;2024-02-26T05:01:57;7.40;99.90
23873;DHT22;42884;50.718;4.630;2024-02-26T05:04:22;7.30;99.90
23873;DHT22;42884;50.718;4.630;2024-02-26T05:06:48;7.30;99.90
23873;DHT22;42884;50.718;4.630;2024-02-26T05:09:14;7.30;99.90
23873;DHT22;42884;50.718;4.630;2024-02-26T05:11:40;7.30;99.90
23873;DHT22;42884;50.718;4.630;2024-02-26T05:14:06;7.30;99.90
23873;DHT22;42884;50.718;4.630;2024-02-26T05:16:31;7.30;99.90
23873;DHT22;42884;50.718;4.630;2024-02-26T05:18:57;7.10;99.90
23873;DHT22;42884;50.718;4.630;2024-02-26T05:21:23;7.10;99.90
23873;DHT22;42884;50.718;4.630;2024-02-26T05:23:49;7.10;99.90
23873;DHT22;42884;50.718;4.630;2024-02-26T05:26:21;7.10;99.90
23873;DHT22;42884;50.718;4.630;2024-02-26T05:28:47;7.10;99.90
23873;DHT22;42884;50.718;4.630;2024-02-26T05:31:13;7.10;99.90
23873;DHT22;42884;50.718;4.630;2024-02-26T05:33:39;7.20;99.90
23873;DHT22;42884;50.718;4.630;2024-02-26T05:36:06;7.20;99.90
23873;DHT22;42884;50.718;4.630;2024-02-26T05:38:31;7.20;99.90
23873;DHT22;42884;50.718;4.630;2024-02-26T05:40:58;7.20;99.90
23873;DHT22;42884;50.718;4.630;2024-02-26T05:43:25;7.00;99.90
23873;DHT22;42884;50.718;4.630;2024-02-26T05:45:51;7.10;99.90
23873;DHT22;42884;50.718;4.630;2024-02-26T05:48:16;7.10;99.90
23873;DHT22;42884;50.718;4.630;2024-02-26T05:50:44;7.10;99.90
23873;DHT22;42884;50.718;4.630;2024-02-26T05:53:10;7.00;99.90
23873;DHT22;42884;50.718;4.630;2024-02-26T05:55:36;7.00;99.90
23873;DHT22;42884;50.718;4.630;2024-02-26T05:58:02;7.00;99.90
23873;DHT22;42884;50.718;4.630;2024-02-26T06:00:28;7.00;99.90
23873;DHT22;42884;50.718;4.630;2024-02-26T06:02:55;6.90;99.90
23873;DHT22;42884;50.718;4.630;2024-02-26T06:05:22;7.10;99.90
23873;DHT22;42884;50.718;4.630;2024-02-26T06:07:47;7.10;99.90
23873;DHT22;42884;50.718;4.630;2024-02-26T06:10:13;7.20;99.90
23873;DHT22;42884;50.718;4.630;2024-02-26T06:12:39;7.00;99.90
23873;DHT22;42884;50.718;4.630;2024-02-26T06:15:06;7.00;99.90
23873;DHT22;42884;50.718;4.630;2024-02-26T06:17:32;7.10;99.90
23873;DHT22;42884;50.718;4.630;2024-02-26T06:19:59;7.10;99.90
23873;DHT22;42884;50.718;4.630;2024-02-26T06:22:25;7.20;99.90
23873;DHT22;42884;50.718;4.630;2024-02-26T06:24:51;7.20;99.90
23873;DHT22;42884;50.718;4.630;2024-02-26T06:27:17;7.20;99.90
23873;DHT22;42884;50.718;4.630;2024-02-26T06:29:42;7.20;99.90
23873;DHT22;42884;50.718;4.630;2024-02-26T06:32:08;7.20;99.90
23873;DHT22;42884;50.718;4.630;2024-02-26T06:34:34;7.10;99.90
23873;DHT22;42884;50.718;4.630;2024-02-26T06:37:00;7.10;99.90
23873;DHT22;42884;50.718;4.630;2024-02-26T06:39:26;7.00;99.90
23873;DHT22;42884;50.718;4.630;2024-02-26T06:41:52;7.00;99.90
23873;DHT22;42884;50.718;4.630;2024-02-26T06:44:25;6.90;99.90
23873;DHT22;42884;50.718;4.630;2024-02-26T06:46:51;7.00;99.90
23873;DHT22;42884;50.718;4.630;2024-02-26T06:49:17;7.00;99.90
23873;DHT22;42884;50.718;4.630;2024-02-26T06:51:43;6.90;99.90
23873;DHT22;42884;50.718;4.630;2024-02-26T06:54:08;6.90;99.90
23873;DHT22;42884;50.718;4.630;2024-02-26T06:56:35;6.90;99.90
23873;DHT22;42884;50.718;4.630;2024-02-26T06:59:00;6.90;99.90
23873;DHT22;42884;50.718;4.630;2024-02-26T07:01:26;6.80;99.90
23873;DHT22;42884;50.718;4.630;2024-02-26T07:03:52;6.90;99.90
23873;DHT22;42884;50.718;4.630;2024-02-26T07:06:17;6.90;99.90
23873;DHT22;42884;50.718;4.630;2024-02-26T07:08:43;7.00;99.90
23873;DHT22;42884;50.718;4.630;2024-02-26T07:11:10;6.90;99.90
23873;DHT22;42884;50.718;4.630;2024-02-26T07:13:35;6.90;99.90
23873;DHT22;42884;50.718;4.630;2024-02-26T07:16:01;7.00;99.90
23873;DHT22;42884;50.718;4.630;2024-02-26T07:18:27;6.90;99.90
23873;DHT22;42884;50.718;4.630;2024-02-26T07:20:52;6.90;99.90
23873;DHT22;42884;50.718;4.630;2024-02-26T07:23:19;7.00;99.90
23873;DHT22;42884;50.718;4.630;2024-02-26T07:25:44;7.10;99.90
23873;DHT22;42884;50.718;4.630;2024-02-26T07:28:14;7.10;99.90
23873;DHT22;42884;50.718;4.630;2024-02-26T07:30:40;7.10;99.90
23873;DHT22;42884;50.718;4.630;2024-02-26T07:33:06;7.00;99.90
23873;DHT22;42884;50.718;4.630;2024-02-26T07:35:33;6.90;99.90
23873;DHT22;42884;50.718;4.630;2024-02-26T07:38:02;6.80;99.90
23873;DHT22;42884;50.718;4.630;2024-02-26T07:40:28;6.80;99.90
23873;DHT22;42884;50.718;4.630;2024-02-26T07:42:53;6.90;99.90
23873;DHT22;42884;50.718;4.630;2024-02-26T07:45:22;6.90;99.90
23873;DHT22;42884;50.718;4.630;2024-02-26T07:47:49;6.90;99.90
23873;DHT22;42884;50.718;4.630;2024-02-26T07:50:17;7.00;99.90
23873;DHT22;42884;50.718;4.630;2024-02-26T07:52:46;7.00;99.90
23873;DHT22;42884;50.718;4.630;2024-02-26T07:55:12;6.90;99.90
23873;DHT22;42884;50.718;4.630;2024-02-26T07:57:41;7.00;99.90
23873;DHT22;42884;50.718;4.630;2024-02-26T08:00:07;6.90;99.90
23873;DHT22;42884;50.718;4.630;2024-02-26T08:02:35;6.90;99.90
23873;DHT22;42884;50.718;4.630;2024-02-26T08:05:00;7.00;99.90
23873;DHT22;42884;50.718;4.630;2024-02-26T08:07:26;7.00;99.90
23873;DHT22;42884;50.718;4.630;2024-02-26T08:09:52;7.10;99.90
23873;DHT22;42884;50.718;4.630;2024-02-26T08:12:18;7.10;99.90
23873;DHT22;42884;50.718;4.630;2024-02-26T08:14:44;7.10;99.90
23873;DHT22;42884;50.718;4.630;2024-02-26T08:17:10;7.20;99.90
23873;DHT22;42884;50.718;4.630;2024-02-26T08:19:35;7.10;99.90
23873;DHT22;42884;50.718;4.630;2024-02-26T08:22:03;7.20;99.90
23873;DHT22;42884;50.718;4.630;2024-02-26T08:24:28;7.00;99.90
23873;DHT22;42884;50.718;4.630;2024-02-26T08:26:54;7.00;99.90
23873;DHT22;42884;50.718;4.630;2024-02-26T08:29:23;7.00;99.90
23873;DHT22;42884;50.718;4.630;2024-02-26T08:31:48;7.00;99.90
23873;DHT22;42884;50.718;4.630;2024-02-26T08:34:14;7.10;99.90
23873;DHT22;42884;50.718;4.630;2024-02-26T08:36:43;7.20;99.90
23873;DHT22;42884;50.718;4.630;2024-02-26T08:39:09;7.20;99.90
23873;DHT22;42884;50.718;4.630;2024-02-26T08:41:35;7.20;99.90
23873;DHT22;42884;50.718;4.630;2024-02-26T08:44:02;7.20;99.90
23873;DHT22;42884;50.718;4.630;2024-02-26T08:46:28;7.40;99.90
23873;DHT22;42884;50.718;4.630;2024-02-26T08:48:53;7.40;99.90
23873;DHT22;42884;50.718;4.630;2024-02-26T08:51:19;7.40;99.90
23873;DHT22;42884;50.718;4.630;2024-02-26T08:53:45;7.40;99.90
23873;DHT22;42884;50.718;4.630;2024-02-26T08:56:11;7.30;99.90
23873;DHT22;42884;50.718;4.630;2024-02-26T08:58:45;7.30;99.90
23873;DHT22;42884;50.718;4.630;2024-02-26T09:01:14;7.30;99.90
23873;DHT22;42884;50.718;4.630;2024-02-26T09:03:40;7.30;99.90
23873;DHT22;42884;50.718;4.630;2024-02-26T09:06:05;7.40;99.90
23873;DHT22;42884;50.718;4.630;2024-02-26T09:08:33;7.40;99.90
23873;DHT22;42884;50.718;4.630;2024-02-26T09:11:09;7.40;99.90
23873;DHT22;42884;50.718;4.630;2024-02-26T09:13:35;7.40;99.90
23873;DHT22;42884;50.718;4.630;2024-02-26T09:16:01;7.30;99.90
23873;DHT22;42884;50.718;4.630;2024-02-26T09:18:28;7.30;99.90
23873;DHT22;42884;50.718;4.630;2024-02-26T09:20:54;7.40;99.90
23873;DHT22;42884;50.718;4.630;2024-02-26T09:23:20;7.40;99.90
23873;DHT22;42884;50.718;4.630;2024-02-26T09:25:46;7.40;99.90
23873;DHT22;42884;50.718;4.630;2024-02-26T09:28:12;7.40;99.90
23873;DHT22;42884;50.718;4.630;2024-02-26T09:30:38;7.40;99.90
23873;DHT22;42884;50.718;4.630;2024-02-26T09:33:04;7.30;99.90
23873;DHT22;42884;50.718;4.630;2024-02-26T09:35:30;7.30;99.90
23873;DHT22;42884;50.718;4.630;2024-02-26T09:37:55;7.20;99.90
23873;DHT22;42884;50.718;4.630;2024-02-26T09:40:22;7.20;99.90
23873;DHT22;42884;50.718;4.630;2024-02-26T09:42:56;7.20;99.90
23873;DHT22;42884;50.718;4.630;2024-02-26T09:45:25;7.20;99.90
23873;DHT22;42884;50.718;4.630;2024-02-26T09:47:55;7.30;99.90
23873;DHT22;42884;50.718;4.630;2024-02-26T09:50:22;7.10;99.90
23873;DHT22;42884;50.718;4.630;2024-02-26T09:52:51;7.10;99.90
23873;DHT22;42884;50.718;4.630;2024-02-26T09:55:17;7.20;99.90
23873;DHT22;42884;50.718;4.630;2024-02-26T09:57:45;7.30;99.90
23873;DHT22;42884;50.718;4.630;2024-02-26T10:00:21;7.40;99.90
23873;DHT22;42884;50.718;4.630;2024-02-26T10:02:48;7.30;99.90
23873;DHT22;42884;50.718;4.630;2024-02-26T10:05:17;7.20;99.90
23873;DHT22;42884;50.718;4.630;2024-02-26T10:07:45;7.30;99.90
23873;DHT22;42884;50.718;4.630;2024-02-26T10:10:12;7.50;99.90
23873;DHT22;42884;50.718;4.630;2024-02-26T10:12:38;7.60;99.90
23873;DHT22;42884;50.718;4.630;2024-02-26T10:15:04;7.70;99.90
23873;DHT22;42884;50.718;4.630;2024-02-26T10:17:30;7.60;99.90
23873;DHT22;42884;50.718;4.630;2024-02-26T10:20:14;7.60;99.90
23873;DHT22;42884;50.718;4.630;2024-02-26T10:22:49;7.60;99.90
23873;DHT22;42884;50.718;4.630;2024-02-26T10:25:15;7.50;99.90
23873;DHT22;42884;50.718;4.630;2024-02-26T10:27:41;7.50;99.90
23873;DHT22;42884;50.718;4.630;2024-02-26T10:30:20;7.40;99.90
23873;DHT22;42884;50.718;4.630;2024-02-26T10:32:47;7.40;99.90
23873;DHT22;42884;50.718;4.630;2024-02-26T10:35:16;7.60;99.90
23873;DHT22;42884;50.718;4.630;2024-02-26T10:37:43;7.50;99.90
23873;DHT22;42884;50.718;4.630;2024-02-26T10:40:10;7.50;99.90
23873;DHT22;42884;50.718;4.630;2024-02-26T10:42:36;7.40;99.90
23873;DHT22;42884;50.718;4.630;2024-02-26T10:45:04;7.50;99.90
23873;DHT22;42884;50.718;4.630;2024-02-26T10:47:30;7.70;99.90
23873;DHT22;42884;50.718;4.630;2024-02-26T10:49:57;7.80;99.90
23873;DHT22;42884;50.718;4.630;2024-02-26T10:52:24;7.90;99.90
23873;DHT22;42884;50.718;4.630;2024-02-26T10:54:54;7.90;99.90
23873;DHT22;42884;50.718;4.630;2024-02-26T10:57:22;8.00;99.90
23873;DHT22;42884;50.718;4.630;2024-02-26T10:59:49;8.10;99.90
23873;DHT22;42884;50.718;4.630;2024-02-26T11:02:16;8.20;99.90
23873;DHT22;42884;50.718;4.630;2024-02-26T11:04:43;7.90;99.90
23873;DHT22;42884;50.718;4.630;2024-02-26T11:07:09;8.00;99.90
23873;DHT22;42884;50.718;4.630;2024-02-26T11:09:37;8.00;99.90
23873;DHT22;42884;50.718;4.630;2024-02-26T11:12:10;8.00;99.90
23873;DHT22;42884;50.718;4.630;2024-02-26T11:14:42;8.00;99.90
23873;DHT22;42884;50.718;4.630;2024-02-26T11:17:09;7.90;99.90
23873;DHT22;42884;50.718;4.630;2024-02-26T11:19:37;7.80;99.90
23873;DHT22;42884;50.718;4.630;2024-02-26T11:22:03;7.70;99.90
23873;DHT22;42884;50.718;4.630;2024-02-26T11:24:32;7.70;99.90
23873;DHT22;42884;50.718;4.630;2024-02-26T11:27:02;7.80;99.90
23873;DHT22;42884;50.718;4.630;2024-02-26T11:29:49;7.80;99.90
23873;DHT22;42884;50.718;4.630;2024-02-26T11:32:16;7.80;99.90
23873;DHT22;42884;50.718;4.630;2024-02-26T11:34:46;7.70;99.90
23873;DHT22;42884;50.718;4.630;2024-02-26T11:37:16;7.70;99.90
23873;DHT22;42884;50.718;4.630;2024-02-26T11:39:42;7.70;99.90
23873;DHT22;42884;50.718;4.630;2024-02-26T11:42:15;7.60;99.90
23873;DHT22;42884;50.718;4.630;2024-02-26T11:44:42;7.70;99.90
23873;DHT22;42884;50.718;4.630;2024-02-26T11:47:14;7.50;99.90
23873;DHT22;42884;50.718;4.630;2024-02-26T11:49:43;7.50;99.90
23873;DHT22;42884;50.718;4.630;2024-02-26T11:52:13;7.60;99.90
23873;DHT22;42884;50.718;4.630;2024-02-26T11:54:51;7.60;99.90
23873;DHT22;42884;50.718;4.630;2024-02-26T12:05:14;7.70;99.90
23873;DHT22;42884;50.718;4.630;2024-02-26T12:07:46;7.70;99.90
23873;DHT22;42884;50.718;4.630;2024-02-26T12:10:27;7.60;99.90
23873;DHT22;42884;50.718;4.630;2024-02-26T12:13:10;7.60;99.90
23873;DHT22;42884;50.718;4.630;2024-02-26T12:15:40;7.70;99.90
23873;DHT22;42884;50.718;4.630;2024-02-26T12:18:08;7.60;99.90
23873;DHT22;42884;50.718;4.630;2024-02-26T12:20:39;7.70;99.90
23873;DHT22;42884;50.718;4.630;2024-02-26T12:23:05;7.70;99.90
23873;DHT22;42884;50.718;4.630;2024-02-26T12:25:31;7.70;99.90
23873;DHT22;42884;50.718;4.630;2024-02-26T12:27:58;7.70;99.90
23873;DHT22;42884;50.718;4.630;2024-02-26T12:30:24;7.70;99.90
23873;DHT22;42884;50.718;4.630;2024-02-26T12:32:55;7.80;99.90
23873;DHT22;42884;50.718;4.630;2024-02-26T12:35:26;7.80;99.90
23873;DHT22;42884;50.718;4.630;2024-02-26T12:37:53;7.90;99.90
23873;DHT22;42884;50.718;4.630;2024-02-26T12:40:19;7.70;99.90
23873;DHT22;42884;50.718;4.630;2024-02-26T12:42:45;7.60;99.90
23873;DHT22;42884;50.718;4.630;2024-02-26T12:45:12;7.50;99.90
23873;DHT22;42884;50.718;4.630;2024-02-26T12:47:42;7.40;99.90
23873;DHT22;42884;50.718;4.630;2024-02-26T12:50:09;7.40;99.90
23873;DHT22;42884;50.718;4.630;2024-02-26T12:52:38;7.40;99.90
23873;DHT22;42884;50.718;4.630;2024-02-26T12:55:05;7.20;99.90
23873;DHT22;42884;50.718;4.630;2024-02-26T12:57:39;7.20;99.90
23873;DHT22;42884;50.718;4.630;2024-02-26T13:00:07;7.30;99.90
23873;DHT22;42884;50.718;4.630;2024-02-26T13:02:37;7.30;99.90
23873;DHT22;42884;50.718;4.630;2024-02-26T13:05:06;7.40;99.90
23873;DHT22;42884;50.718;4.630;2024-02-26T13:07:34;7.50;99.90
23873;DHT22;42884;50.718;4.630;2024-02-26T13:10:05;7.50;99.90
23873;DHT22;42884;50.718;4.630;2024-02-26T13:12:38;7.50;99.90
23873;DHT22;42884;50.718;4.630;2024-02-26T13:15:07;7.70;99.90
23873;DHT22;42884;50.718;4.630;2024-02-26T13:17:35;7.70;99.90
23873;DHT22;42884;50.718;4.630;2024-02-26T13:20:08;7.70;99.90
23873;DHT22;42884;50.718;4.630;2024-02-26T13:22:34;7.70;99.90
23873;DHT22;42884;50.718;4.630;2024-02-26T13:25:01;7.70;99.90
23873;DHT22;42884;50.718;4.630;2024-02-26T13:27:30;7.70;99.90
23873;DHT22;42884;50.718;4.630;2024-02-26T13:30:11;7.60;99.90
23873;DHT22;42884;50.718;4.630;2024-02-26T13:32:40;7.70;99.90
23873;DHT22;42884;50.718;4.630;2024-02-26T13:35:10;7.60;99.90
23873;DHT22;42884;50.718;4.630;2024-02-26T13:37:38;7.70;99.90
23873;DHT22;42884;50.718;4.630;2024-02-26T13:40:09;7.80;99.90
23873;DHT22;42884;50.718;4.630;2024-02-26T13:42:36;7.70;99.90
23873;DHT22;42884;50.718;4.630;2024-02-26T13:45:03;7.60;99.90
23873;DHT22;42884;50.718;4.630;2024-02-26T13:47:32;7.50;99.90
23873;DHT22;42884;50.718;4.630;2024-02-26T13:50:00;7.30;99.90
23873;DHT22;42884;50.718;4.630;2024-02-26T13:52:29;7.20;99.90
23873;DHT22;42884;50.718;4.630;2024-02-26T13:54:57;7.30;99.90
23873;DHT22;42884;50.718;4.630;2024-02-26T13:57:27;7.30;99.90
23873;DHT22;42884;50.718;4.630;2024-02-26T13:59:56;7.30;99.90
23873;DHT22;42884;50.718;4.630;2024-02-26T14:02:22;7.40;99.90
23873;DHT22;42884;50.718;4.630;2024-02-26T14:04:51;7.30;99.90
23873;DHT22;42884;50.718;4.630;2024-02-26T14:07:20;7.40;99.90
23873;DHT22;42884;50.718;4.630;2024-02-26T14:09:45;7.30;99.90
23873;DHT22;42884;50.718;4.630;2024-02-26T14:12:14;7.40;99.90
23873;DHT22;42884;50.718;4.630;2024-02-26T14:14:39;7.30;99.90
23873;DHT22;42884;50.718;4.630;2024-02-26T14:17:07;7.40;99.90
23873;DHT22;42884;50.718;4.630;2024-02-26T14:19:33;7.30;99.90
23873;DHT22;42884;50.718;4.630;2024-02-26T14:21:59;7.20;99.90
23873;DHT22;42884;50.718;4.630;2024-02-26T14:24:25;7.30;99.90
23873;DHT22;42884;50.718;4.630;2024-02-26T14:26:51;7.40;99.90
23873;DHT22;42884;50.718;4.630;2024-02-26T14:29:16;7.40;99.90
23873;DHT22;42884;50.718;4.630;2024-02-26T14:31:42;7.40;99.90
23873;DHT22;42884;50.718;4.630;2024-02-26T14:34:08;7.40;99.90
23873;DHT22;42884;50.718;4.630;2024-02-26T14:36:34;7.40;99.90
23873;DHT22;42884;50.718;4.630;2024-02-26T14:39:00;7.50;99.90
23873;DHT22;42884;50.718;4.630;2024-02-26T14:41:26;7.40;99.90
23873;DHT22;42884;50.718;4.630;2024-02-26T14:43:56;7.30;99.90
23873;DHT22;42884;50.718;4.630;2024-02-26T14:46:22;7.30;99.90
23873;DHT22;42884;50.718;4.630;2024-02-26T14:48:52;7.40;99.90
23873;DHT22;42884;50.718;4.630;2024-02-26T14:51:18;7.40;99.90
23873;DHT22;42884;50.718;4.630;2024-02-26T14:53:45;7.50;99.90
23873;DHT22;42884;50.718;4.630;2024-02-26T14:56:10;7.60;99.90
23873;DHT22;42884;50.718;4.630;2024-02-26T14:58:36;7.70;99.90
23873;DHT22;42884;50.718;4.630;2024-02-26T15:01:08;7.70;99.90
23873;DHT22;42884;50.718;4.630;2024-02-26T15:03:34;7.60;99.90
23873;DHT22;42884;50.718;4.630;2024-02-26T15:06:04;7.60;99.90
23873;DHT22;42884;50.718;4.630;2024-02-26T15:08:30;7.60;99.90
23873;DHT22;42884;50.718;4.630;2024-02-26T15:11:00;7.70;99.90
23873;DHT22;42884;50.718;4.630;2024-02-26T15:13:26;7.60;99.90
23873;DHT22;42884;50.718;4.630;2024-02-26T15:15:59;7.70;99.90
23873;DHT22;42884;50.718;4.630;2024-02-26T15:18:25;7.50;99.90
23873;DHT22;42884;50.718;4.630;2024-02-26T15:20:53;7.50;99.90
23873;DHT22;42884;50.718;4.630;2024-02-26T15:23:22;7.60;99.90
23873;DHT22;42884;50.718;4.630;2024-02-26T15:25:53;7.50;99.90
23873;DHT22;42884;50.718;4.630;2024-02-26T15:28:19;7.60;99.90
23873;DHT22;42884;50.718;4.630;2024-02-26T15:30:47;7.40;99.90
23873;DHT22;42884;50.718;4.630;2024-02-26T15:33:17;7.40;99.90
23873;DHT22;42884;50.718;4.630;2024-02-26T15:35:43;7.40;99.90
23873;DHT22;42884;50.718;4.630;2024-02-26T15:38:12;7.30;99.90
23873;DHT22;42884;50.718;4.630;2024-02-26T15:40:39;7.20;99.90
23873;DHT22;42884;50.718;4.630;2024-02-26T15:43:09;7.20;99.90
23873;DHT22;42884;50.718;4.630;2024-02-26T15:45:35;7.10;99.90
23873;DHT22;42884;50.718;4.630;2024-02-26T15:48:01;7.30;99.90
23873;DHT22;42884;50.718;4.630;2024-02-26T15:50:28;7.20;99.90
23873;DHT22;42884;50.718;4.630;2024-02-26T15:52:53;7.40;99.90